Time;durP1;ratioP1;P1;durP2;ratioP2;P2;SDS_P1;SDS_P2;PMS_P1;PMS_P2;Temp;Humidity;BMP_temperature;BMP_pressure;BME280_temperature;BME280_humidity;BME280_pressure;Samples;Min_cycle;Max_cycle;Signal;HPM_P1;HPM_P2
2022/06/14 00:01:31;;;;;;;3.95;2.13;;;12.30;99.90;;;;;;5004924;28;20130;-78
2022/06/14 00:03:57;;;;;;;3.40;1.88;;;12.30;99.90;;;;;;5004922;28;20038;-78
2022/06/14 00:06:30;;;;;;;4.82;2.00;;;12.30;99.90;;;;;;5003388;28;20034;-77
2022/06/14 00:08:56;;;;;;;7.38;1.88;;;12.30;99.90;;;;;;5004826;28;20045;-78
2022/06/14 00:11:26;;;;;;;2.53;1.98;;;12.20;99.90;;;;;;5002693;28;20054;-78
2022/06/14 00:13:54;;;;;;;4.88;1.80;;;12.20;99.90;;;;;;5004717;28;20496;-78
2022/06/14 00:16:22;;;;;;;10.00;2.30;;;12.20;99.90;;;;;;5004484;28;20105;-78
2022/06/14 00:18:48;;;;;;;5.35;2.53;;;12.10;99.90;;;;;;5004741;28;20496;-78
2022/06/14 00:21:14;;;;;;;4.88;2.75;;;12.10;99.90;;;;;;5001825;28;20125;-78
2022/06/14 00:23:39;;;;;;;1.67;1.58;;;12.10;99.90;;;;;;5004149;28;20041;-78
2022/06/14 00:26:06;;;;;;;3.60;1.65;;;12.00;99.90;;;;;;5004119;28;20548;-78
2022/06/14 00:28:33;;;;;;;3.45;1.98;;;11.90;99.90;;;;;;5003077;28;20131;-78
2022/06/14 00:31:06;;;;;;;5.68;1.73;;;11.90;99.90;;;;;;5003558;28;20042;-78
2022/06/14 00:33:32;;;;;;;5.40;1.75;;;11.90;99.90;;;;;;5004361;28;20056;-79
2022/06/14 00:36:01;;;;;;;2.05;1.85;;;11.90;99.90;;;;;;5004050;28;20049;-78
2022/06/14 00:38:27;;;;;;;8.35;2.80;;;11.90;99.90;;;;;;5003450;28;20034;-78
2022/06/14 00:40:55;;;;;;;2.42;1.55;;;11.90;99.90;;;;;;5004287;28;20045;-78
2022/06/14 00:43:21;;;;;;;4.40;1.45;;;11.90;99.90;;;;;;5004324;28;20046;-78
2022/06/14 00:45:48;;;;;;;5.72;3.03;;;11.90;99.90;;;;;;5003422;28;20049;-78
2022/06/14 00:48:20;;;;;;;2.42;1.67;;;11.80;99.90;;;;;;5003475;28;20050;-78
2022/06/14 00:50:52;;;;;;;5.75;3.25;;;11.80;99.90;;;;;;5003337;28;20053;-78
2022/06/14 00:53:37;;;;;;;2.13;1.40;;;11.80;99.90;;;;;;5003024;28;20457;-78
2022/06/14 00:56:10;;;;;;;3.95;2.10;;;11.70;99.90;;;;;;4985573;28;20046;-78
2022/06/14 00:58:51;;;;;;;3.35;2.13;;;11.70;99.90;;;;;;5003024;28;20056;-78
2022/06/14 01:01:23;;;;;;;2.53;1.60;;;11.70;99.90;;;;;;5003956;28;20069;-80
2022/06/14 01:03:55;;;;;;;7.88;2.30;;;11.70;99.90;;;;;;5002532;28;20052;-80
2022/06/14 01:06:47;;;;;;;15.25;1.98;;;11.70;99.90;;;;;;5002521;28;20280;-79
2022/06/14 01:09:19;;;;;;;1.88;1.58;;;11.70;99.90;;;;;;5002215;28;20049;-80
2022/06/14 01:11:48;;;;;;;3.85;1.83;;;11.70;99.90;;;;;;5003645;28;20090;-80
2022/06/14 01:14:17;;;;;;;2.10;1.92;;;11.70;99.90;;;;;;5003715;28;20168;-79
2022/06/14 01:16:44;;;;;;;3.83;2.13;;;11.70;99.90;;;;;;5020761;28;20488;-80
2022/06/14 01:19:26;;;;;;;6.28;2.40;;;11.70;99.90;;;;;;5003477;28;20053;-80
2022/06/14 01:22:12;;;;;;;3.45;2.30;;;11.70;99.90;;;;;;5002476;28;20091;-80
2022/06/14 01:24:41;;;;;;;3.13;1.73;;;11.60;99.90;;;;;;5001891;28;20046;-80
2022/06/14 01:27:09;;;;;;;4.20;1.77;;;11.60;99.90;;;;;;5003090;28;20116;-80
2022/06/14 01:29:36;;;;;;;1.85;1.75;;;11.60;99.90;;;;;;4999877;28;20125;-80
2022/06/14 01:32:08;;;;;;;2.00;1.48;;;11.60;99.90;;;;;;5003101;28;20046;-80
2022/06/14 01:34:38;;;;;;;13.77;1.65;;;11.60;99.90;;;;;;5002349;28;20053;-79
2022/06/14 01:37:04;;;;;;;5.43;1.75;;;11.60;99.90;;;;;;5000708;28;20077;-80
2022/06/14 01:39:29;;;;;;;4.57;2.03;;;11.60;99.90;;;;;;5003523;28;20081;-79
2022/06/14 01:42:16;;;;;;;4.95;1.58;;;11.60;99.90;;;;;;5003198;28;20139;-79
2022/06/14 01:45:03;;;;;;;5.30;2.15;;;11.60;99.90;;;;;;5001677;28;20049;-80
2022/06/14 01:47:59;;;;;;;1.60;1.50;;;11.50;99.90;;;;;;4993535;28;20049;-80
2022/06/14 01:53:25;;;;;;;2.13;1.88;;;11.50;99.90;;;;;;5002449;28;20080;-79
2022/06/14 01:56:10;;;;;;;9.25;2.30;;;11.50;99.90;;;;;;5003091;28;20049;-80
2022/06/14 01:58:59;;;;;;;5.40;1.73;;;11.50;99.90;;;;;;5002790;28;20120;-79
2022/06/14 02:01:47;;;;;;;3.90;1.85;;;11.40;99.90;;;;;;5001374;28;20071;-80
2022/06/14 02:04:38;;;;;;;1.60;1.25;;;11.40;99.90;;;;;;5002843;28;20068;-80
2022/06/14 02:07:10;;;;;;;1.25;1.20;;;11.40;99.90;;;;;;5001766;28;20042;-80
2022/06/14 02:09:56;;;;;;;1.52;1.42;;;11.40;99.90;;;;;;5001495;28;20045;-80
2022/06/14 02:12:31;;;;;;;2.17;2.00;;;11.40;99.90;;;;;;5000975;28;20073;-80
2022/06/14 02:15:05;;;;;;;1.15;1.05;;;11.40;99.90;;;;;;4985193;28;20132;-80
2022/06/14 02:17:45;;;;;;;1.50;1.40;;;11.40;99.90;;;;;;5002763;28;20053;-80
2022/06/14 02:20:20;;;;;;;1.63;1.48;;;11.40;99.90;;;;;;5000271;28;20049;-80
2022/06/14 02:22:52;;;;;;;1.45;1.15;;;11.40;99.90;;;;;;5002496;28;20049;-79
2022/06/14 02:25:23;;;;;;;3.28;2.25;;;11.30;99.90;;;;;;5000888;28;20688;-80
2022/06/14 02:28:04;;;;;;;1.38;1.27;;;11.30;99.90;;;;;;5002399;28;20550;-80
2022/06/14 02:30:36;;;;;;;4.88;1.35;;;11.30;99.90;;;;;;5002531;28;20085;-79
2022/06/14 02:33:20;;;;;;;2.55;2.20;;;11.30;99.90;;;;;;5002372;28;20045;-80
2022/06/14 02:35:57;;;;;;;5.53;2.50;;;11.30;99.90;;;;;;5001364;28;20503;-79
2022/06/14 02:38:37;;;;;;;2.10;1.17;;;11.30;99.90;;;;;;5001559;28;20056;-80
2022/06/14 02:41:28;;;;;;;4.05;1.45;;;11.30;99.90;;;;;;5001812;28;20480;-80
2022/06/14 02:44:23;;;;;;;4.53;1.85;;;11.20;99.90;;;;;;5017523;28;20382;-80
2022/06/14 02:47:04;;;;;;;5.18;1.90;;;11.20;99.90;;;;;;5008358;28;20564;-80
2022/06/14 02:49:38;;;;;;;1.45;1.35;;;11.20;99.90;;;;;;5001105;28;20038;-80
2022/06/14 02:52:36;;;;;;;3.42;2.05;;;11.20;99.90;;;;;;5015831;28;20557;-80
2022/06/14 02:55:09;;;;;;;1.95;1.52;;;11.20;99.90;;;;;;5000272;28;20045;-80
2022/06/14 02:57:48;;;;;;;3.78;1.83;;;11.20;99.90;;;;;;5000682;28;20058;-80
2022/06/14 03:00:37;;;;;;;2.35;1.40;;;11.20;99.90;;;;;;5000361;28;20100;-80
2022/06/14 03:03:15;;;;;;;3.90;2.40;;;11.20;99.90;;;;;;4982815;28;20140;-80
2022/06/14 03:05:54;;;;;;;6.25;2.50;;;11.20;99.90;;;;;;5001009;28;20041;-80
2022/06/14 03:08:45;;;;;;;2.15;1.48;;;11.20;99.90;;;;;;5001344;28;20069;-80
2022/06/14 03:11:23;;;;;;;10.55;2.40;;;11.20;99.90;;;;;;5000899;28;20560;-79
2022/06/14 03:14:01;;;;;;;10.48;2.50;;;11.20;99.90;;;;;;5001847;28;20038;-79
2022/06/14 03:16:37;;;;;;;1.95;1.42;;;11.20;99.90;;;;;;5000771;28;20145;-80
2022/06/14 03:19:17;;;;;;;10.50;2.38;;;11.20;99.90;;;;;;4999602;28;20532;-79
2022/06/14 03:22:09;;;;;;;2.42;1.88;;;11.20;99.90;;;;;;5000230;28;20061;-80
2022/06/14 03:24:44;;;;;;;2.78;1.88;;;11.20;99.90;;;;;;5000077;28;20046;-79
2022/06/14 03:27:13;;;;;;;4.60;2.47;;;11.20;99.90;;;;;;5016382;28;20061;-80
2022/06/14 03:30:00;;;;;;;4.57;1.95;;;11.10;99.90;;;;;;5001251;28;20498;-80
2022/06/14 03:32:45;;;;;;;2.60;2.40;;;11.10;99.90;;;;;;5001748;28;20042;-80
2022/06/14 03:35:27;;;;;;;8.27;2.40;;;11.20;99.90;;;;;;4999654;28;20056;-80
2022/06/14 03:37:55;;;;;;;4.95;2.17;;;11.20;99.90;;;;;;4999913;28;20085;-80
2022/06/14 03:40:24;;;;;;;2.47;2.10;;;11.10;99.90;;;;;;5000845;28;20096;-80
2022/06/14 03:42:50;;;;;;;5.57;1.92;;;11.20;99.90;;;;;;5001224;28;20045;-80
2022/06/14 03:45:23;;;;;;;2.38;1.88;;;11.20;99.90;;;;;;5000577;28;20130;-80
2022/06/14 03:47:49;;;;;;;2.05;1.95;;;11.20;99.90;;;;;;5000946;28;20095;-80
2022/06/14 03:50:45;;;;;;;2.40;1.58;;;11.10;99.90;;;;;;4998576;28;20117;-80
2022/06/14 03:53:26;;;;;;;3.45;2.05;;;11.20;99.90;;;;;;4999009;28;20046;-80
2022/06/14 03:55:58;;;;;;;4.00;1.88;;;11.20;99.90;;;;;;5001091;28;20073;-80
2022/06/14 03:58:35;;;;;;;2.72;1.80;;;11.20;99.90;;;;;;5000827;28;20373;-80
2022/06/14 04:01:20;;;;;;;8.38;2.70;;;11.20;99.90;;;;;;4999871;28;20121;-80
2022/06/14 04:03:55;;;;;;;2.80;2.58;;;11.20;99.90;;;;;;5000664;28;20680;-80
2022/06/14 04:06:36;;;;;;;6.97;2.20;;;11.20;99.90;;;;;;4998533;28;20530;-79
2022/06/14 04:09:44;;;;;;;3.17;2.33;;;11.20;99.90;;;;;;5010307;28;20133;-80
2022/06/14 04:12:33;;;;;;;1.58;1.48;;;11.20;99.90;;;;;;5020406;28;20085;-80
2022/06/14 04:15:10;;;;;;;2.08;1.70;;;11.20;99.90;;;;;;5019159;28;20062;-80
2022/06/14 04:17:45;;;;;;;7.32;2.65;;;11.20;99.90;;;;;;5020685;28;20037;-80
2022/06/14 04:20:39;;;;;;;11.30;2.85;;;11.30;99.90;;;;;;5019320;28;21135;-80
2022/06/14 04:23:21;;;;;;;2.55;2.20;;;11.30;99.90;;;;;;4999182;28;20260;-80
2022/06/14 04:25:57;;;;;;;2.53;1.97;;;11.30;99.90;;;;;;5001031;28;20046;-80
2022/06/14 04:28:29;;;;;;;3.50;2.15;;;11.30;99.90;;;;;;4999405;28;20706;-80
2022/06/14 04:31:07;;;;;;;4.22;2.33;;;11.40;99.90;;;;;;5004245;28;20041;-79
2022/06/14 04:33:45;;;;;;;6.50;2.80;;;11.40;99.90;;;;;;4986652;28;20050;-80
2022/06/14 04:36:22;;;;;;;3.45;2.75;;;11.40;99.90;;;;;;5003125;28;20489;-80
2022/06/14 04:38:54;;;;;;;2.13;2.00;;;11.50;99.90;;;;;;5004324;28;20056;-80
2022/06/14 04:41:26;;;;;;;2.10;2.00;;;11.50;99.90;;;;;;5002466;28;20046;-80
2022/06/14 04:44:00;;;;;;;11.30;2.90;;;11.50;99.90;;;;;;5004018;28;20064;-79
2022/06/14 04:46:56;;;;;;;5.60;2.95;;;11.60;99.90;;;;;;5002857;28;20053;-80
2022/06/14 04:49:48;;;;;;;2.30;2.10;;;11.70;99.90;;;;;;4994458;28;20057;-80
2022/06/14 04:52:19;;;;;;;3.67;2.53;;;11.70;99.90;;;;;;5003919;28;20076;-80
2022/06/14 04:55:00;;;;;;;3.83;2.70;;;11.80;99.90;;;;;;5019119;28;20431;-80
2022/06/14 04:57:46;;;;;;;4.38;3.97;;;11.80;99.90;;;;;;5002783;28;20506;-80
2022/06/14 05:00:20;;;;;;;4.13;3.25;;;11.80;99.90;;;;;;5003597;28;20046;-81
2022/06/14 05:02:58;;;;;;;7.65;1.98;;;11.90;99.90;;;;;;5003949;28;20042;-80
2022/06/14 05:05:36;;;;;;;6.82;3.03;;;11.90;99.90;;;;;;5002683;28;20127;-80
2022/06/14 05:08:41;;;;;;;3.17;2.88;;;12.00;99.90;;;;;;5001983;28;20061;-81
2022/06/14 05:11:42;;;;;;;4.35;2.42;;;12.00;99.90;;;;;;5001670;28;20053;-80
2022/06/14 05:14:21;;;;;;;2.33;2.13;;;12.10;99.90;;;;;;4976955;28;20088;-81
2022/06/14 05:16:55;;;;;;;3.70;2.38;;;12.10;99.90;;;;;;4997017;28;20057;-80
2022/06/14 05:19:38;;;;;;;2.92;2.60;;;12.20;99.90;;;;;;5014948;28;20057;-80
2022/06/14 05:22:14;;;;;;;4.47;1.98;;;12.20;99.90;;;;;;5005420;28;20044;-81
2022/06/14 05:24:40;;;;;;;3.03;1.65;;;12.20;99.90;;;;;;5003134;28;20074;-80
2022/06/14 05:27:33;;;;;;;2.83;2.63;;;12.20;99.90;;;;;;5018888;28;20100;-80
2022/06/14 05:30:06;;;;;;;7.38;2.85;;;12.30;99.90;;;;;;5010042;28;20402;-79
2022/06/14 05:32:40;;;;;;;2.20;2.00;;;12.30;99.90;;;;;;5008031;28;20084;-77
2022/06/14 05:35:25;;;;;;;5.57;2.60;;;12.40;99.90;;;;;;5005224;28;20048;-80
2022/06/14 05:38:12;;;;;;;2.38;2.08;;;12.40;99.90;;;;;;4999610;28;20050;-81
2022/06/14 05:40:49;;;;;;;2.35;2.13;;;12.40;99.90;;;;;;4997687;28;20054;-82
2022/06/14 05:43:38;;;;;;;6.75;2.53;;;12.50;99.90;;;;;;5001430;28;20544;-78
2022/06/14 05:46:14;;;;;;;2.78;2.42;;;12.60;99.90;;;;;;4998467;28;20073;-78
2022/06/14 05:48:50;;;;;;;4.70;2.47;;;12.60;99.90;;;;;;4997732;28;20041;-78
2022/06/14 05:51:20;;;;;;;2.38;2.17;;;12.70;99.90;;;;;;4996546;28;20030;-79
2022/06/14 05:54:07;;;;;;;1.90;1.55;;;12.70;99.90;;;;;;4999657;28;20042;-78
2022/06/14 05:56:59;;;;;;;3.33;2.47;;;12.80;99.90;;;;;;5000225;28;20052;-79
2022/06/14 05:59:31;;;;;;;1.80;1.70;;;12.80;99.90;;;;;;4987059;28;20509;-79
2022/06/14 06:02:06;;;;;;;4.78;2.03;;;12.90;99.90;;;;;;5002834;28;20280;-80
2022/06/14 06:04:52;;;;;;;2.22;2.00;;;12.90;99.90;;;;;;4999553;28;20119;-80
2022/06/14 06:07:24;;;;;;;5.70;2.50;;;13.00;99.90;;;;;;4983101;28;20045;-79
2022/06/14 06:10:04;;;;;;;2.58;2.38;;;13.10;99.90;;;;;;4999566;28;20072;-79
2022/06/14 06:12:45;;;;;;;2.63;2.42;;;13.10;99.90;;;;;;5000523;28;20042;-79
2022/06/14 06:15:32;;;;;;;2.25;1.48;;;13.20;99.90;;;;;;5000795;28;20399;-79
2022/06/14 06:18:06;;;;;;;2.75;1.75;;;13.20;99.90;;;;;;4999770;28;20049;-79
2022/06/14 06:20:49;;;;;;;4.32;2.03;;;13.20;99.90;;;;;;4999802;28;20037;-79
2022/06/14 06:23:25;;;;;;;1.85;1.70;;;13.30;99.90;;;;;;5015471;28;20053;-79
2022/06/14 06:25:54;;;;;;;2.88;2.55;;;13.40;99.90;;;;;;5000772;28;20054;-79
2022/06/14 06:28:36;;;;;;;1.48;1.20;;;13.40;99.90;;;;;;5000318;28;20519;-79
2022/06/14 06:31:17;;;;;;;;;;;13.50;99.90;;;;;;4999121;28;20053;-79
2022/06/14 06:33:47;;;;;;;1.83;1.58;;;13.50;99.90;;;;;;5000710;28;19952;-79
2022/06/14 06:36:22;;;;;;;4.05;2.35;;;13.50;99.90;;;;;;4998889;28;20060;-79
2022/06/14 06:38:54;;;;;;;1.92;1.63;;;13.60;99.90;;;;;;5000787;28;20048;-79
2022/06/14 06:44:23;;;;;;;5.97;1.88;;;13.70;99.90;;;;;;4998248;28;20096;-80
2022/06/14 06:47:06;;;;;;;2.10;1.42;;;13.70;99.90;;;;;;4999085;28;20117;-79
2022/06/14 06:49:40;;;;;;;2.05;1.75;;;13.80;99.90;;;;;;4999469;28;20121;-80
2022/06/14 06:52:09;;;;;;;1.70;1.60;;;13.80;99.90;;;;;;4998102;28;20066;-79
2022/06/14 06:54:42;;;;;;;1.67;1.58;;;13.80;99.90;;;;;;4998803;28;20038;-79
2022/06/14 06:57:14;;;;;;;2.63;1.65;;;13.80;99.90;;;;;;4999954;28;20138;-79
2022/06/14 06:59:42;;;;;;;;;;;13.90;99.90;;;;;;5000779;28;20047;-79
2022/06/14 07:02:26;;;;;;;3.72;2.30;;;13.90;99.90;;;;;;5000014;28;19921;-79
2022/06/14 07:05:03;;;;;;;3.60;2.05;;;14.00;99.90;;;;;;4997698;28;20065;-79
2022/06/14 07:07:42;;;;;;;8.60;2.67;;;14.10;99.90;;;;;;5000112;28;20109;-80
2022/06/14 07:10:16;;;;;;;1.40;1.30;;;14.10;99.90;;;;;;4999804;28;20038;-79
2022/06/14 07:12:48;;;;;;;2.17;1.38;;;14.20;99.90;;;;;;4999534;28;20066;-79
2022/06/14 07:15:13;;;;;;;;;;;14.20;99.90;;;;;;5000222;28;20054;-79
2022/06/14 07:17:58;;;;;;;2.03;1.33;;;14.20;99.90;;;;;;4999650;28;19932;-79
2022/06/14 07:20:33;;;;;;;4.40;1.92;;;14.30;99.90;;;;;;4998874;28;20163;-79
2022/06/14 07:23:22;;;;;;;1.13;1.13;;;14.30;99.90;;;;;;5015307;28;20895;-80
2022/06/14 07:26:09;;;;;;;1.15;1.08;;;14.40;99.90;;;;;;4999535;28;20369;-80
2022/06/14 07:28:43;;;;;;;1.42;1.33;;;14.40;99.90;;;;;;4999669;28;20503;-80
2022/06/14 07:31:24;;;;;;;2.92;1.08;;;14.40;99.90;;;;;;4999669;28;20079;-80
2022/06/14 07:33:49;;;;;;;2.72;1.95;;;14.50;99.90;;;;;;4999443;28;20049;-79
2022/06/14 07:36:38;;;;;;;3.63;1.60;;;14.50;99.90;;;;;;4998532;28;20045;-77
2022/06/14 07:39:27;;;;;;;0.90;0.90;;;14.60;99.90;;;;;;4997764;28;20108;-77
2022/06/14 07:42:07;;;;;;;1.73;1.27;;;14.60;99.90;;;;;;4998528;28;20454;-78
2022/06/14 07:44:41;;;;;;;1.40;1.27;;;14.60;99.90;;;;;;4999683;28;20057;-77
2022/06/14 07:47:27;;;;;;;4.75;1.20;;;14.70;99.90;;;;;;4998660;28;20426;-78
2022/06/14 07:50:14;;;;;;;3.35;1.27;;;14.70;99.90;;;;;;4984662;28;20129;-78
2022/06/14 07:52:56;;;;;;;2.05;1.27;;;14.80;99.90;;;;;;4998688;28;20080;-77
2022/06/14 07:55:25;;;;;;;;;;;14.90;99.90;;;;;;4999664;28;20068;-77
2022/06/14 07:58:17;;;;;;;2.25;1.52;;;14.90;99.90;;;;;;4998419;28;19929;-77
2022/06/14 08:03:50;;;;;;;0.80;0.80;;;14.90;99.90;;;;;;4999540;28;20054;-77
2022/06/14 08:06:22;;;;;;;3.17;1.52;;;14.90;99.90;;;;;;5001901;28;20428;-78
2022/06/14 08:09:11;;;;;;;1.20;0.95;;;15.00;99.90;;;;;;5003644;28;20095;-77
2022/06/14 08:11:42;;;;;;;2.25;1.42;;;15.00;99.90;;;;;;5002909;28;20058;-78
2022/06/14 08:14:14;;;;;;;1.20;1.10;;;15.10;99.90;;;;;;5003022;28;20480;-78
2022/06/14 08:16:41;;;;;;;3.33;1.20;;;15.10;99.90;;;;;;5003199;28;20050;-78
2022/06/14 08:19:11;;;;;;;1.25;1.20;;;15.20;99.90;;;;;;5003291;28;20038;-78
2022/06/14 08:21:46;;;;;;;2.78;1.17;;;15.30;99.90;;;;;;5002731;28;20044;-78
2022/06/14 08:24:16;;;;;;;1.90;1.48;;;15.30;99.90;;;;;;5002846;28;20049;-78
2022/06/14 08:27:04;;;;;;;1.65;0.90;;;15.30;99.90;;;;;;5001368;28;20286;-77
2022/06/14 08:29:50;;;;;;;1.33;1.23;;;15.30;99.90;;;;;;5002034;28;20073;-77
2022/06/14 08:32:29;;;;;;;0.68;0.68;;;15.30;99.90;;;;;;5002602;28;20046;-78
2022/06/14 08:35:27;;;;;;;2.05;1.58;;;15.30;99.90;;;;;;5002957;28;20420;-78
2022/06/14 08:38:04;;;;;;;1.33;1.02;;;15.30;99.90;;;;;;5001668;28;20101;-79
2022/06/14 08:40:30;;;;;;;3.63;1.38;;;15.40;99.90;;;;;;5004135;28;20549;-78
2022/06/14 08:43:04;;;;;;;1.35;1.25;;;15.30;99.90;;;;;;4985871;28;20072;-79
2022/06/14 08:45:37;;;;;;;0.77;0.77;;;15.30;99.90;;;;;;5002442;28;20150;-79
2022/06/14 08:48:08;;;;;;;2.70;0.98;;;15.40;99.90;;;;;;5002434;28;20539;-79
2022/06/14 08:50:50;;;;;;;1.10;1.10;;;15.40;99.90;;;;;;5002584;28;20048;-79
2022/06/14 08:53:22;;;;;;;0.77;0.77;;;15.40;99.90;;;;;;5001721;28;20038;-79
2022/06/14 08:55:50;;;;;;;2.97;1.67;;;15.50;99.90;;;;;;5003257;28;20058;-80
2022/06/14 08:59:04;;;;;;;2.38;0.85;;;15.60;99.90;;;;;;5003106;28;20056;-77
2022/06/14 09:02:01;;;;;;;1.58;1.45;;;15.70;99.90;;;;;;4970142;28;20087;-77
2022/06/14 09:05:13;;;;;;;1.80;1.42;;;15.80;99.90;;;;;;5001472;28;20492;-77
2022/06/14 09:08:00;;;;;;;4.18;1.92;;;15.80;99.90;;;;;;4991379;28;20089;-80
2022/06/14 09:10:53;;;;;;;1.73;1.30;;;15.80;99.90;;;;;;4999433;28;20554;-80
2022/06/14 09:13:25;;;;;;;1.67;1.30;;;15.80;99.90;;;;;;4999081;28;20133;-80
2022/06/14 09:15:53;;;;;;;3.45;1.38;;;15.80;99.90;;;;;;4998494;28;20280;-78
2022/06/14 09:18:46;;;;;;;1.10;1.00;;;15.80;99.90;;;;;;5000351;28;20735;-80
2022/06/14 09:21:27;;;;;;;1.80;1.48;;;15.90;99.90;;;;;;4999965;28;20293;-84
2022/06/14 09:24:17;;;;;;;0.80;0.77;;;15.80;99.90;;;;;;5001353;28;20463;-78
2022/06/14 09:27:20;;;;;;;0.60;0.60;;;15.90;99.90;;;;;;4998145;28;20134;-78
2022/06/14 09:29:48;;;;;;;;;;;15.90;99.90;;;;;;4982349;28;20049;-77
2022/06/14 09:33:09;;;;;;;1.10;1.00;;;16.00;99.90;;;;;;4999891;28;19929;-78
2022/06/14 09:35:42;;;;;;;2.42;1.02;;;16.00;99.90;;;;;;4998166;28;20046;-79
2022/06/14 09:38:14;;;;;;;1.30;1.15;;;16.10;99.90;;;;;;4999806;28;20458;-78
2022/06/14 09:41:11;;;;;;;0.80;0.80;;;16.10;99.90;;;;;;4999062;28;20091;-78
2022/06/14 09:44:00;;;;;;;3.33;0.90;;;16.20;99.90;;;;;;5000119;28;20069;-77
2022/06/14 09:46:56;;;;;;;1.50;0.93;;;16.30;99.90;;;;;;4999525;28;20215;-77
2022/06/14 09:49:21;;;;;;;2.17;0.57;;;16.30;99.90;;;;;;5013895;28;20125;-80
2022/06/14 09:52:15;;;;;;;2.10;1.15;;;16.30;99.90;;;;;;5001228;28;20109;-79
2022/06/14 09:54:59;;;;;;;1.10;1.00;;;16.20;99.90;;;;;;4998434;28;20050;-80
2022/06/14 09:58:03;;;;;;;1.13;1.08;;;16.20;99.90;;;;;;4995140;28;20584;-81
2022/06/14 10:00:44;;;;;;;0.90;0.90;;;16.20;99.90;;;;;;4997603;28;20096;-80
2022/06/14 10:03:32;;;;;;;1.38;0.90;;;16.20;99.90;;;;;;5001709;28;20104;-80
2022/06/14 10:06:19;;;;;;;0.70;0.60;;;16.30;99.90;;;;;;5002160;28;20070;-80
2022/06/14 10:09:04;;;;;;;1.38;1.27;;;16.30;99.90;;;;;;5001045;28;20042;-80
2022/06/14 10:11:33;;;;;;;1.60;0.77;;;16.40;99.90;;;;;;5001180;28;20058;-80
2022/06/14 10:14:18;;;;;;;0.82;0.82;;;16.40;99.90;;;;;;5002954;28;20060;-80
2022/06/14 10:17:02;;;;;;;1.85;1.10;;;16.40;99.90;;;;;;5002117;28;20519;-80
2022/06/14 10:19:39;;;;;;;1.27;1.00;;;16.50;99.90;;;;;;5000141;28;20128;-80
2022/06/14 10:22:45;;;;;;;2.15;1.10;;;16.50;99.90;;;;;;5001643;28;20037;-80
2022/06/14 10:28:11;;;;;;;2.70;1.02;;;16.50;99.90;;;;;;4937856;28;20519;-80
2022/06/14 10:28:48;;;;;;;4.85;0.75;;;16.60;99.90;;;;;;5000997;28;20065;-80
2022/06/14 10:31:42;;;;;;;2.30;1.35;;;16.80;99.90;;;;;;5013612;28;20053;-80
2022/06/14 10:34:10;;;;;;;2.17;0.80;;;16.70;99.90;;;;;;4979250;28;20233;-79
2022/06/14 10:36:46;;;;;;;1.15;1.00;;;16.80;99.90;;;;;;4999847;28;20072;-80
2022/06/14 10:39:43;;;;;;;2.35;1.48;;;16.80;99.90;;;;;;5001435;28;20140;-78
2022/06/14 10:42:35;;;;;;;0.95;0.85;;;16.90;99.90;;;;;;4999296;28;20054;-78
2022/06/14 10:45:16;;;;;;;2.33;1.30;;;17.00;99.90;;;;;;4989270;28;20084;-78
2022/06/14 10:48:01;;;;;;;0.70;0.70;;;17.00;99.90;;;;;;4999975;28;20569;-78
2022/06/14 10:50:32;;;;;;;1.30;1.20;;;17.00;99.90;;;;;;4997418;28;20073;-80
2022/06/14 10:53:26;;;;;;;0.77;0.77;;;17.00;99.90;;;;;;5001195;28;20091;-79
2022/06/14 10:56:06;;;;;;;0.82;0.73;;;17.00;99.90;;;;;;4983060;28;20072;-89
2022/06/14 10:58:56;;;;;;;1.00;0.90;;;17.00;99.90;;;;;;5000242;28;20476;-86
2022/06/14 11:01:55;;;;;;;3.70;1.00;;;17.00;99.90;;;;;;4979221;28;20485;-85
2022/06/14 11:04:35;;;;;;;0.40;0.40;;;17.00;99.90;;;;;;4987573;28;20732;-79
2022/06/14 11:07:27;;;;;;;1.15;1.10;;;17.00;99.90;;;;;;4979853;28;20042;-80
2022/06/14 11:09:56;;;;;;;0.80;0.80;;;17.10;99.90;;;;;;4986037;28;20044;-84
2022/06/14 11:12:46;;;;;;;0.98;0.98;;;17.10;99.90;;;;;;5000435;28;20149;-88
2022/06/14 11:15:32;;;;;;;1.63;1.23;;;17.10;99.90;;;;;;4998966;28;20542;-81
2022/06/14 11:18:31;;;;;;;1.73;0.85;;;17.20;99.90;;;;;;4999460;28;20046;-83
2022/06/14 11:21:26;;;;;;;1.70;1.02;;;17.30;99.90;;;;;;4997348;28;20385;-81
2022/06/14 11:24:12;;;;;;;1.33;1.02;;;17.40;99.90;;;;;;4998104;28;20134;-81
2022/06/14 11:26:56;;;;;;;1.20;1.05;;;17.40;99.90;;;;;;4996614;28;20046;-81
2022/06/14 11:29:36;;;;;;;1.08;1.02;;;17.50;99.90;;;;;;4996475;28;20042;-82
2022/06/14 11:32:15;;;;;;;2.92;1.20;;;17.50;99.90;;;;;;4995920;28;20519;-80
2022/06/14 11:35:13;;;;;;;1.10;1.00;;;17.50;99.90;;;;;;4995074;28;20262;-82
2022/06/14 11:38:06;;;;;;;1.83;1.23;;;17.50;99.90;;;;;;4996615;28;20513;-82
2022/06/14 11:40:36;;;;;;;1.50;0.88;;;17.50;99.90;;;;;;4996095;28;20100;-80
2022/06/14 11:43:32;;;;;;;1.70;0.85;;;17.50;99.90;;;;;;4999551;28;20046;-81
2022/06/14 11:46:31;;;;;;;1.38;1.17;;;17.60;99.90;;;;;;4998800;28;20041;-82
2022/06/14 11:49:06;;;;;;;3.30;1.40;;;17.60;99.90;;;;;;4976982;28;20042;-82
2022/06/14 11:51:42;;;;;;;2.20;1.50;;;17.60;99.90;;;;;;4992693;28;20074;-80
2022/06/14 11:54:26;;;;;;;0.93;0.88;;;17.60;99.90;;;;;;4989518;28;20583;-81
2022/06/14 11:57:38;;;;;;;0.80;0.80;;;17.80;99.90;;;;;;4989661;28;20592;-82
2022/06/14 12:00:18;;;;;;;1.40;1.33;;;17.90;99.90;;;;;;4930923;29;20108;-82
2022/06/14 12:03:17;;;;;;;1.38;1.00;;;18.00;99.90;;;;;;4932209;29;20048;-82
2022/06/14 12:05:50;;;;;;;1.02;0.93;;;18.10;99.90;;;;;;4970756;28;20120;-82
2022/06/14 12:08:24;;;;;;;1.17;0.70;;;18.20;99.90;;;;;;4979857;28;20461;-81
2022/06/14 12:11:07;;;;;;;1.17;1.13;;;18.30;99.90;;;;;;4997051;28;20046;-81
2022/06/14 12:13:48;;;;;;;2.13;1.08;;;18.30;99.90;;;;;;5028546;28;20049;-82
2022/06/14 12:16:19;;;;;;;3.25;0.98;;;18.40;99.90;;;;;;5001338;28;20037;-82
2022/06/14 12:19:04;;;;;;;2.53;0.90;;;18.40;99.90;;;;;;4999093;28;20053;-84
2022/06/14 12:21:47;;;;;;;2.13;1.15;;;18.50;99.90;;;;;;5013863;28;20427;-83
2022/06/14 12:24:20;;;;;;;1.17;1.13;;;18.50;99.90;;;;;;5002941;28;20082;-82
2022/06/14 12:27:01;;;;;;;1.63;1.10;;;18.50;99.90;;;;;;5002960;28;20504;-82
2022/06/14 12:29:35;;;;;;;1.20;1.10;;;18.60;99.90;;;;;;5012689;28;20331;-83
2022/06/14 12:32:27;;;;;;;1.17;1.08;;;18.60;99.90;;;;;;4982652;28;20049;-81
2022/06/14 12:35:15;;;;;;;0.90;0.90;;;18.60;99.90;;;;;;5000708;28;20132;-82
2022/06/14 12:37:51;;;;;;;1.25;1.10;;;18.60;99.90;;;;;;4998860;28;20418;-76
2022/06/14 12:40:39;;;;;;;4.93;1.58;;;18.60;99.90;;;;;;5000937;28;20037;-76
2022/06/14 12:43:17;;;;;;;0.80;0.80;;;18.70;99.90;;;;;;5011573;28;20740;-82
2022/06/14 12:46:03;;;;;;;2.05;0.95;;;18.70;99.90;;;;;;5003438;28;20053;-76
2022/06/14 12:48:34;;;;;;;1.42;0.90;;;18.70;99.90;;;;;;4997464;28;20038;-76
2022/06/14 12:51:22;;;;;;;0.63;0.63;;;18.70;99.90;;;;;;5006473;28;20136;-77
2022/06/14 12:54:13;;;;;;;4.90;1.08;;;18.80;99.90;;;;;;5012118;28;20288;-76
2022/06/14 12:57:11;;;;;;;1.75;1.17;;;18.80;99.90;;;;;;5005247;28;20038;-75
2022/06/14 12:59:49;;;;;;;3.83;2.47;;;18.90;99.90;;;;;;5014019;28;20092;-75
2022/06/14 13:02:25;;;;;;;2.97;0.88;;;18.90;99.90;;;;;;5000937;28;20030;-75
2022/06/14 13:04:58;;;;;;;1.23;0.95;;;18.90;99.90;;;;;;5012827;28;20133;-75
2022/06/14 13:07:29;;;;;;;0.80;0.80;;;19.00;99.90;;;;;;5014471;28;20045;-75
2022/06/14 13:10:24;;;;;;;1.50;1.40;;;18.90;99.90;;;;;;5002319;28;20523;-75
2022/06/14 13:13:24;;;;;;;2.47;1.15;;;19.00;99.90;;;;;;5013475;28;20460;-81
2022/06/14 13:15:53;;;;;;;1.75;1.05;;;19.00;99.90;;;;;;5006371;28;20080;-81
2022/06/14 13:18:43;;;;;;;1.45;0.70;;;19.00;99.90;;;;;;5002991;28;20030;-82
2022/06/14 13:21:24;;;;;;;1.25;0.80;;;18.90;99.90;;;;;;5000006;28;20120;-83
2022/06/14 13:24:08;;;;;;;2.50;1.17;;;19.00;99.90;;;;;;5001943;28;20037;-83
2022/06/14 13:26:45;;;;;;;1.17;1.08;;;19.00;99.90;;;;;;5000877;28;20046;-84
2022/06/14 13:29:41;;;;;;;1.42;0.98;;;19.00;99.90;;;;;;5005135;28;20033;-84
2022/06/14 13:32:29;;;;;;;1.30;1.20;;;19.00;99.90;;;;;;4999498;28;20034;-82
2022/06/14 13:35:29;;;;;;;1.20;1.10;;;19.10;99.90;;;;;;5000373;28;20038;-85
2022/06/14 13:38:03;;;;;;;1.52;1.25;;;19.10;99.90;;;;;;4983437;28;20088;-82
2022/06/14 13:40:38;;;;;;;2.30;1.30;;;19.10;99.90;;;;;;5003422;28;20045;-82
2022/06/14 13:43:27;;;;;;;5.05;1.60;;;19.10;99.90;;;;;;5001660;28;20045;-87
2022/06/14 13:46:06;;;;;;;3.20;1.33;;;19.10;99.90;;;;;;4997722;28;20069;-87
2022/06/14 13:48:45;;;;;;;3.30;1.30;;;19.10;99.90;;;;;;4999317;28;20052;-85
2022/06/14 13:51:28;;;;;;;1.60;1.50;;;19.00;99.90;;;;;;4996860;28;20046;-82
2022/06/14 13:54:04;;;;;;;1.50;1.40;;;19.00;99.90;;;;;;5000321;28;20408;-85
2022/06/14 13:56:39;;;;;;;1.90;1.58;;;19.00;99.90;;;;;;5003983;28;20038;-85
2022/06/14 13:59:14;;;;;;;1.98;0.98;;;19.00;99.90;;;;;;5005044;28;20080;-82
2022/06/14 14:02:02;;;;;;;0.90;0.90;;;18.90;99.90;;;;;;4999922;28;20046;-80
2022/06/14 14:04:51;;;;;;;2.40;1.45;;;18.90;99.90;;;;;;4999191;28;20594;-85